Time;durP1;ratioP1;P1;durP2;ratioP2;P2;SDS_P1;SDS_P2;PMS_P1;PMS_P2;Temp;Humidity;BMP_temperature;BMP_pressure;BME280_temperature;BME280_humidity;BME280_pressure;Samples;Min_cycle;Max_cycle;Signal;HPM_P1;HPM_P2
2022/08/13 00:00:21;;;;;;;0.00;0.00;;;23.20;99.90;;;;;;5033024;28;20049;-68
2022/08/13 00:02:47;;;;;;;0.03;0.03;;;23.20;99.90;;;;;;5043122;28;20063;-68
2022/08/13 00:05:13;;;;;;;0.00;0.00;;;23.20;99.90;;;;;;5030237;28;20049;-68
2022/08/13 00:07:39;;;;;;;0.10;0.10;;;23.20;99.90;;;;;;5028173;28;20056;-68
2022/08/13 00:10:10;;;;;;;0.08;0.08;;;23.10;99.90;;;;;;5027432;28;20137;-68
2022/08/13 00:15:27;;;;;;;0.10;0.10;;;23.10;99.90;;;;;;5031428;28;20042;-68
2022/08/13 00:17:54;;;;;;;0.10;0.10;;;23.10;99.90;;;;;;5036761;28;20049;-68
2022/08/13 00:20:24;;;;;;;0.38;0.38;;;23.00;99.90;;;;;;5047831;28;20045;-68
2022/08/13 00:22:50;;;;;;;0.22;0.20;;;23.00;99.90;;;;;;5033605;28;20056;-68
2022/08/13 00:25:16;;;;;;;0.05;0.05;;;22.90;99.90;;;;;;5027338;28;20045;-68
2022/08/13 00:27:47;;;;;;;0.57;0.57;;;22.90;99.90;;;;;;5028119;28;20046;-68
2022/08/13 00:30:15;;;;;;;0.00;0.00;;;22.90;99.90;;;;;;5033637;28;20061;-68
2022/08/13 00:32:44;;;;;;;0.22;0.10;;;22.90;99.90;;;;;;5041402;28;20127;-68
2022/08/13 00:35:10;;;;;;;2.05;0.32;;;22.90;99.90;;;;;;5046736;28;20041;-68
2022/08/13 00:37:37;;;;;;;1.08;0.43;;;22.90;99.90;;;;;;5035252;28;20072;-68
2022/08/13 00:40:05;;;;;;;0.22;0.22;;;22.80;99.90;;;;;;5026249;28;20054;-68
2022/08/13 00:42:32;;;;;;;0.13;0.13;;;22.80;99.90;;;;;;5034056;28;20888;-68
2022/08/13 00:44:58;;;;;;;0.00;0.00;;;22.80;99.90;;;;;;5036529;28;20036;-68
2022/08/13 00:50:13;;;;;;;0.20;0.20;;;22.70;99.90;;;;;;5045174;28;20555;-68
2022/08/13 00:52:40;;;;;;;4.90;0.65;;;22.70;99.90;;;;;;5036659;28;20057;-68
2022/08/13 00:55:10;;;;;;;0.20;0.20;;;22.70;99.90;;;;;;5046203;28;20041;-68
2022/08/13 00:57:37;;;;;;;0.20;0.20;;;22.60;99.90;;;;;;5031507;28;20485;-68
2022/08/13 01:00:12;;;;;;;0.00;0.00;;;22.60;99.90;;;;;;5039063;28;20053;-68
2022/08/13 01:02:46;;;;;;;0.38;0.38;;;22.60;99.90;;;;;;5047930;28;20052;-68
2022/08/13 01:05:11;;;;;;;0.10;0.10;;;22.60;99.90;;;;;;5043672;28;20044;-68
2022/08/13 01:07:43;;;;;;;0.08;0.08;;;22.50;99.90;;;;;;5029650;28;20037;-68
2022/08/13 01:10:17;;;;;;;0.28;0.28;;;22.50;99.90;;;;;;5041481;28;20052;-68
2022/08/13 01:12:45;;;;;;;0.10;0.10;;;22.40;99.90;;;;;;5030054;28;20499;-68
2022/08/13 01:15:12;;;;;;;0.30;0.22;;;22.40;99.90;;;;;;5039609;28;20049;-68
2022/08/13 01:17:39;;;;;;;0.32;0.32;;;22.40;99.90;;;;;;5050335;28;20079;-68
2022/08/13 01:20:05;;;;;;;0.35;0.35;;;22.40;99.90;;;;;;5038271;28;20041;-68
2022/08/13 01:22:33;;;;;;;0.28;0.10;;;22.30;99.90;;;;;;5042292;28;20127;-68
2022/08/13 01:25:01;;;;;;;0.00;0.00;;;22.30;99.90;;;;;;5042491;28;20107;-68
2022/08/13 01:27:27;;;;;;;0.15;0.15;;;22.30;99.90;;;;;;5038549;28;20068;-68
2022/08/13 01:29:53;;;;;;;0.35;0.20;;;22.20;99.90;;;;;;5049376;28;20068;-69
2022/08/13 01:32:21;;;;;;;0.00;0.00;;;22.20;99.90;;;;;;5034189;28;20787;-68
2022/08/13 01:34:48;;;;;;;0.22;0.22;;;22.20;99.90;;;;;;5048404;28;20090;-68
2022/08/13 01:37:14;;;;;;;0.28;0.28;;;22.20;99.90;;;;;;5038101;28;20045;-68
2022/08/13 01:39:41;;;;;;;0.22;0.22;;;22.20;99.90;;;;;;5033809;28;20049;-68
2022/08/13 01:42:16;;;;;;;0.10;0.10;;;22.10;99.90;;;;;;5034751;28;20123;-67
2022/08/13 01:44:45;;;;;;;0.03;0.03;;;22.10;99.90;;;;;;5048758;28;20076;-68
2022/08/13 01:52:41;;;;;;;0.15;0.10;;;22.10;99.90;;;;;;5037337;28;20473;-68
2022/08/13 01:55:07;;;;;;;0.20;0.20;;;22.10;99.90;;;;;;5047714;28;20052;-68
2022/08/13 01:57:34;;;;;;;0.65;0.20;;;22.00;99.90;;;;;;5038407;28;20120;-68
2022/08/13 02:00:01;;;;;;;0.13;0.13;;;22.00;99.90;;;;;;5045427;28;20855;-68
2022/08/13 02:02:30;;;;;;;0.03;0.03;;;22.00;99.90;;;;;;5049488;28;20059;-68
2022/08/13 02:04:55;;;;;;;0.75;0.75;;;22.00;99.90;;;;;;5050159;28;20102;-68
2022/08/13 02:07:21;;;;;;;0.08;0.08;;;21.90;99.90;;;;;;5029426;28;20049;-67
2022/08/13 02:09:47;;;;;;;0.10;0.10;;;21.90;99.90;;;;;;5029935;28;20631;-68
2022/08/13 02:12:13;;;;;;;0.20;0.17;;;21.90;99.90;;;;;;5032680;28;20045;-68
2022/08/13 02:14:43;;;;;;;0.00;0.00;;;21.90;99.90;;;;;;5036808;28;20041;-68
2022/08/13 02:17:27;;;;;;;0.20;0.10;;;21.80;99.90;;;;;;5044915;28;20040;-68
2022/08/13 02:19:56;;;;;;;0.20;0.20;;;21.80;99.90;;;;;;5030153;28;20069;-68
2022/08/13 02:22:24;;;;;;;0.10;0.10;;;21.80;99.90;;;;;;5032922;28;20383;-68
2022/08/13 02:24:54;;;;;;;0.00;0.00;;;21.80;99.90;;;;;;5047846;28;20057;-67
2022/08/13 02:27:25;;;;;;;0.10;0.10;;;21.70;99.90;;;;;;5037387;28;21806;-67
2022/08/13 02:29:54;;;;;;;0.25;0.25;;;21.70;99.90;;;;;;5047094;28;20048;-67
2022/08/13 02:32:22;;;;;;;0.45;0.45;;;21.70;99.90;;;;;;5047117;28;20033;-68
2022/08/13 02:34:50;;;;;;;0.28;0.28;;;21.70;99.90;;;;;;5037921;28;20041;-67
2022/08/13 02:37:20;;;;;;;0.00;0.00;;;21.70;99.90;;;;;;5028727;28;20069;-68
2022/08/13 02:39:45;;;;;;;0.10;0.10;;;21.70;99.90;;;;;;5029557;28;20136;-68
2022/08/13 02:42:12;;;;;;;0.38;0.38;;;21.60;99.90;;;;;;5038362;28;20116;-68
2022/08/13 02:44:39;;;;;;;0.00;0.00;;;21.60;99.90;;;;;;5034993;28;20041;-68
2022/08/13 02:47:05;;;;;;;0.17;0.00;;;21.60;99.90;;;;;;5056702;28;20047;-68
2022/08/13 02:49:32;;;;;;;0.10;0.10;;;21.50;99.90;;;;;;5048247;28;20103;-68
2022/08/13 02:51:59;;;;;;;0.30;0.30;;;21.50;99.90;;;;;;5028361;28;20045;-68
2022/08/13 02:54:25;;;;;;;0.10;0.10;;;21.40;99.90;;;;;;5028183;28;20060;-68
2022/08/13 02:56:51;;;;;;;0.32;0.32;;;21.40;99.90;;;;;;5029338;28;20084;-68
2022/08/13 02:59:17;;;;;;;0.00;0.00;;;21.40;99.90;;;;;;5033747;28;20493;-68
2022/08/13 03:01:45;;;;;;;0.00;0.00;;;21.40;99.90;;;;;;5043833;28;20045;-67
2022/08/13 03:04:14;;;;;;;0.10;0.10;;;21.30;99.90;;;;;;5029403;28;20045;-68
2022/08/13 03:06:39;;;;;;;0.28;0.28;;;21.30;99.90;;;;;;5028413;28;20103;-68
2022/08/13 03:09:05;;;;;;;0.30;0.28;;;21.30;99.90;;;;;;5044420;28;20045;-68
2022/08/13 03:11:33;;;;;;;0.03;0.03;;;21.30;99.90;;;;;;5046216;28;20055;-68
2022/08/13 03:14:07;;;;;;;0.40;0.40;;;21.30;99.90;;;;;;5047567;28;20041;-68
2022/08/13 03:16:34;;;;;;;0.00;0.00;;;21.20;99.90;;;;;;5042372;28;20098;-68
2022/08/13 03:19:00;;;;;;;0.13;0.13;;;21.30;99.90;;;;;;5029772;28;20052;-67
2022/08/13 03:21:32;;;;;;;7.22;0.30;;;21.20;99.90;;;;;;5027168;28;20397;-67
2022/08/13 03:23:59;;;;;;;0.65;0.65;;;21.20;99.90;;;;;;5040264;28;20091;-67
2022/08/13 03:26:25;;;;;;;0.35;0.35;;;21.20;99.90;;;;;;5046920;28;20080;-67
2022/08/13 03:28:51;;;;;;;0.03;0.03;;;21.10;99.90;;;;;;5048121;28;20672;-67
2022/08/13 03:31:21;;;;;;;0.05;0.05;;;21.10;99.90;;;;;;5043234;28;20047;-68
2022/08/13 03:33:47;;;;;;;0.47;0.40;;;21.10;99.90;;;;;;5048143;28;20037;-68
2022/08/13 03:36:14;;;;;;;0.00;0.00;;;21.10;99.90;;;;;;5048407;28;20045;-68
2022/08/13 03:38:40;;;;;;;0.00;0.00;;;21.00;99.90;;;;;;5048370;28;20099;-68
2022/08/13 03:41:11;;;;;;;0.35;0.35;;;21.00;99.90;;;;;;5045470;28;20484;-68
2022/08/13 03:43:42;;;;;;;0.03;0.03;;;21.00;99.90;;;;;;5037721;28;20053;-68
2022/08/13 03:46:11;;;;;;;0.35;0.35;;;21.00;99.90;;;;;;5038781;28;20045;-68
2022/08/13 03:48:37;;;;;;;1.35;0.20;;;21.00;99.90;;;;;;5032226;28;20037;-68
2022/08/13 03:51:03;;;;;;;0.22;0.22;;;20.90;99.90;;;;;;5028157;28;20060;-68
2022/08/13 03:53:29;;;;;;;0.00;0.00;;;20.90;99.90;;;;;;5036162;28;20041;-67
2022/08/13 03:55:58;;;;;;;0.32;0.22;;;20.90;99.90;;;;;;5043605;28;20049;-68
2022/08/13 03:58:28;;;;;;;0.00;0.00;;;20.90;99.90;;;;;;5027205;28;20091;-68
2022/08/13 04:00:54;;;;;;;0.50;0.50;;;20.80;99.90;;;;;;5028518;28;20049;-68
2022/08/13 04:03:25;;;;;;;1.15;0.20;;;20.80;99.90;;;;;;5042586;28;20136;-68
2022/08/13 04:05:56;;;;;;;0.00;0.00;;;20.80;99.90;;;;;;5034498;28;20073;-68
2022/08/13 04:08:22;;;;;;;3.83;1.80;;;20.70;99.90;;;;;;5027821;28;20103;-68
2022/08/13 04:10:49;;;;;;;0.25;0.20;;;20.80;99.90;;;;;;5033636;28;20049;-68
2022/08/13 04:13:15;;;;;;;0.00;0.00;;;20.80;99.90;;;;;;5047938;28;20041;-68
2022/08/13 04:15:43;;;;;;;0.30;0.30;;;20.80;99.90;;;;;;5044715;28;20412;-67
2022/08/13 04:18:11;;;;;;;0.00;0.00;;;20.70;99.90;;;;;;5042708;28;20542;-68
2022/08/13 04:20:38;;;;;;;2.30;0.88;;;20.70;99.90;;;;;;5046122;28;20033;-68
2022/08/13 04:23:07;;;;;;;0.03;0.03;;;20.70;99.90;;;;;;5047441;28;20236;-68
2022/08/13 04:25:34;;;;;;;0.20;0.20;;;20.70;99.90;;;;;;5051618;28;20041;-68
2022/08/13 04:27:59;;;;;;;0.20;0.20;;;20.70;99.90;;;;;;5050517;28;20350;-67
2022/08/13 04:30:25;;;;;;;4.75;0.93;;;20.70;99.90;;;;;;5042936;28;20329;-68
2022/08/13 04:32:51;;;;;;;1.65;0.90;;;20.70;99.90;;;;;;5031965;28;20071;-68
2022/08/13 04:35:16;;;;;;;0.00;0.00;;;20.70;99.90;;;;;;5034095;28;20037;-67
2022/08/13 04:37:42;;;;;;;0.10;0.10;;;20.70;99.90;;;;;;5039976;28;20171;-68
2022/08/13 04:40:10;;;;;;;0.10;0.10;;;20.70;99.90;;;;;;5042918;28;20123;-68
2022/08/13 04:42:53;;;;;;;0.05;0.05;;;20.70;99.90;;;;;;5040263;28;20064;-68
2022/08/13 04:45:20;;;;;;;0.25;0.25;;;20.60;99.90;;;;;;5034817;28;20917;-68
2022/08/13 04:47:46;;;;;;;0.10;0.10;;;20.70;99.90;;;;;;5032026;28;20042;-68
2022/08/13 04:50:12;;;;;;;0.90;0.55;;;20.60;99.90;;;;;;5031325;28;20053;-68
2022/08/13 04:52:39;;;;;;;0.70;0.47;;;20.60;99.90;;;;;;5036131;28;20122;-68
2022/08/13 04:55:06;;;;;;;0.10;0.10;;;20.60;99.90;;;;;;5038085;28;20037;-68
2022/08/13 04:57:33;;;;;;;0.10;0.10;;;20.60;99.90;;;;;;5031627;28;20057;-68
2022/08/13 04:59:59;;;;;;;0.10;0.10;;;20.60;99.90;;;;;;5030950;28;20041;-68
2022/08/13 05:02:24;;;;;;;0.20;0.20;;;20.60;99.90;;;;;;5032166;28;20058;-68
2022/08/13 05:04:51;;;;;;;0.00;0.00;;;20.60;99.90;;;;;;5031751;28;20061;-68
2022/08/13 05:07:16;;;;;;;0.03;0.03;;;20.60;99.90;;;;;;5029920;28;20049;-68
2022/08/13 05:09:42;;;;;;;0.00;0.00;;;20.60;99.90;;;;;;5039605;28;20033;-68
2022/08/13 05:12:08;;;;;;;0.45;0.45;;;20.60;99.90;;;;;;5045481;28;20067;-68
2022/08/13 05:14:35;;;;;;;0.40;0.40;;;20.60;99.90;;;;;;5046268;28;20033;-68
2022/08/13 05:17:03;;;;;;;0.15;0.15;;;20.70;99.90;;;;;;5030911;28;20041;-68
2022/08/13 05:19:29;;;;;;;0.00;0.00;;;20.70;99.90;;;;;;5030434;28;20060;-68
2022/08/13 05:21:54;;;;;;;0.57;0.20;;;20.70;99.90;;;;;;5029859;28;20084;-68
2022/08/13 05:24:22;;;;;;;0.00;0.00;;;20.70;99.90;;;;;;5036342;28;20037;-68
2022/08/13 05:26:48;;;;;;;1.15;0.73;;;20.70;99.90;;;;;;5030289;28;20053;-68
2022/08/13 05:29:14;;;;;;;0.00;0.00;;;20.80;99.90;;;;;;5040213;28;20052;-68
2022/08/13 05:31:40;;;;;;;0.20;0.20;;;20.70;99.90;;;;;;5050341;28;20045;-68
2022/08/13 05:34:06;;;;;;;0.13;0.10;;;20.80;99.90;;;;;;5041068;28;20038;-68
2022/08/13 05:36:32;;;;;;;0.10;0.10;;;20.80;99.90;;;;;;5034606;28;20037;-68
2022/08/13 05:38:58;;;;;;;0.05;0.05;;;20.80;99.90;;;;;;5050245;28;20509;-68
2022/08/13 05:41:25;;;;;;;0.08;0.08;;;20.90;99.90;;;;;;5032797;28;20029;-68
2022/08/13 05:43:51;;;;;;;0.40;0.38;;;20.90;99.90;;;;;;5048503;28;20053;-68
2022/08/13 05:46:17;;;;;;;0.40;0.40;;;20.90;99.90;;;;;;5049579;28;20045;-68
2022/08/13 05:48:56;;;;;;;2.85;0.43;;;21.00;99.90;;;;;;5048580;28;20132;-68
2022/08/13 05:51:25;;;;;;;0.00;0.00;;;21.00;99.90;;;;;;5038085;28;20055;-68
2022/08/13 05:53:54;;;;;;;0.00;0.00;;;21.00;99.90;;;;;;5030543;28;20091;-68
2022/08/13 05:56:24;;;;;;;0.00;0.00;;;21.10;99.90;;;;;;5029598;28;20038;-68
2022/08/13 05:58:51;;;;;;;0.22;0.22;;;21.10;99.90;;;;;;5030385;28;20041;-68
2022/08/13 06:04:13;;;;;;;0.13;0.13;;;21.20;99.90;;;;;;5046619;28;20527;-68
2022/08/13 06:06:40;;;;;;;0.10;0.10;;;21.20;99.90;;;;;;5046094;28;20084;-68
2022/08/13 06:09:08;;;;;;;0.43;0.43;;;21.30;99.90;;;;;;5032277;28;20057;-68
2022/08/13 06:11:35;;;;;;;0.10;0.10;;;21.30;99.90;;;;;;5033427;28;20098;-68
2022/08/13 06:14:01;;;;;;;0.00;0.00;;;21.30;99.90;;;;;;5054804;28;20127;-68
2022/08/13 06:16:30;;;;;;;0.20;0.15;;;21.40;99.90;;;;;;5041089;28;20489;-68
2022/08/13 06:18:59;;;;;;;0.25;0.13;;;21.40;99.90;;;;;;5029573;28;20115;-68
2022/08/13 06:21:26;;;;;;;0.00;0.00;;;21.40;99.90;;;;;;5038124;28;20041;-68
2022/08/13 06:23:52;;;;;;;0.10;0.10;;;21.50;99.90;;;;;;5033199;28;20080;-68
2022/08/13 06:26:20;;;;;;;0.70;0.30;;;21.50;99.90;;;;;;5047129;28;20419;-68
2022/08/13 06:28:47;;;;;;;0.00;0.00;;;21.60;99.90;;;;;;5033242;28;20049;-68
2022/08/13 06:31:16;;;;;;;0.00;0.00;;;21.60;99.90;;;;;;5028677;28;20045;-68
2022/08/13 06:33:43;;;;;;;0.25;0.20;;;21.70;99.90;;;;;;5048744;28;20052;-68
2022/08/13 06:36:12;;;;;;;0.77;0.77;;;21.70;99.90;;;;;;5034538;28;20606;-68
2022/08/13 06:38:43;;;;;;;0.00;0.00;;;21.80;99.90;;;;;;5042927;28;20132;-68
2022/08/13 06:41:11;;;;;;;0.00;0.00;;;21.90;99.90;;;;;;5036455;28;20540;-68
2022/08/13 06:43:40;;;;;;;0.00;0.00;;;21.90;99.90;;;;;;5045972;28;20044;-68
2022/08/13 06:46:06;;;;;;;1.55;0.25;;;22.00;99.90;;;;;;5048049;28;20048;-68
2022/08/13 06:48:33;;;;;;;0.00;0.00;;;22.00;99.90;;;;;;5039563;28;20519;-68
2022/08/13 06:51:04;;;;;;;0.00;0.00;;;22.10;99.90;;;;;;5037488;28;20053;-68
2022/08/13 06:53:32;;;;;;;0.00;0.00;;;22.10;99.90;;;;;;5044566;28;20046;-68
2022/08/13 06:55:58;;;;;;;0.03;0.03;;;22.20;99.90;;;;;;5029328;28;20048;-68
2022/08/13 06:58:28;;;;;;;0.00;0.00;;;22.20;99.90;;;;;;5027614;28;20489;-68
2022/08/13 07:00:55;;;;;;;0.00;0.00;;;22.30;99.90;;;;;;5029483;28;20509;-68
2022/08/13 07:03:25;;;;;;;0.00;0.00;;;22.30;99.90;;;;;;5028887;28;20413;-68
2022/08/13 07:05:51;;;;;;;0.00;0.00;;;22.40;99.90;;;;;;5030798;28;20053;-68
2022/08/13 07:08:17;;;;;;;0.10;0.10;;;22.40;99.90;;;;;;5029276;28;20439;-68
2022/08/13 07:10:50;;;;;;;0.00;0.00;;;22.40;99.90;;;;;;5029161;28;20124;-68
2022/08/13 07:13:20;;;;;;;0.00;0.00;;;22.50;99.90;;;;;;5037323;28;20500;-68
2022/08/13 07:15:50;;;;;;;1.45;1.17;;;22.60;99.90;;;;;;5034975;28;20041;-68
2022/08/13 07:18:15;;;;;;;0.03;0.03;;;22.60;99.60;;;;;;5029047;28;20080;-68
2022/08/13 07:20:42;;;;;;;0.00;0.00;;;22.70;99.80;;;;;;5028286;28;20045;-68
2022/08/13 07:23:07;;;;;;;0.00;0.00;;;22.70;99.80;;;;;;5028535;28;20404;-68
2022/08/13 07:25:35;;;;;;;0.00;0.00;;;22.80;99.90;;;;;;5028582;28;20095;-67
2022/08/13 07:28:02;;;;;;;0.05;0.05;;;22.80;99.90;;;;;;5033480;28;20054;-67
2022/08/13 07:30:28;;;;;;;0.00;0.00;;;22.90;99.80;;;;;;5030896;28;20702;-68
2022/08/13 07:32:54;;;;;;;0.00;0.00;;;22.90;99.70;;;;;;5042453;28;20750;-69
2022/08/13 07:35:19;;;;;;;0.10;0.10;;;23.00;99.70;;;;;;5028567;28;20080;-69
2022/08/13 07:37:49;;;;;;;0.00;0.00;;;23.00;99.90;;;;;;5037993;28;20084;-69
2022/08/13 07:40:15;;;;;;;0.03;0.03;;;23.10;99.80;;;;;;5047658;28;20409;-69
2022/08/13 07:42:42;;;;;;;0.00;0.00;;;23.10;99.80;;;;;;5035971;28;20057;-69
2022/08/13 07:45:09;;;;;;;0.00;0.00;;;23.20;99.90;;;;;;5052975;28;20056;-70
2022/08/13 07:47:37;;;;;;;0.00;0.00;;;23.30;99.70;;;;;;5045676;28;20053;-69
2022/08/13 07:50:05;;;;;;;0.00;0.00;;;23.30;99.90;;;;;;5030245;28;20515;-69
2022/08/13 07:52:32;;;;;;;0.00;0.00;;;23.40;99.20;;;;;;5031545;28;20056;-69
2022/08/13 07:55:00;;;;;;;0.00;0.00;;;23.40;99.40;;;;;;5027767;28;20128;-69
2022/08/13 07:57:30;;;;;;;0.00;0.00;;;23.50;99.30;;;;;;5027300;28;20428;-69
2022/08/13 07:59:56;;;;;;;0.00;0.00;;;23.60;99.30;;;;;;5037618;28;20142;-69
2022/08/13 08:02:25;;;;;;;0.00;0.00;;;23.60;99.20;;;;;;5034681;28;20053;-69
2022/08/13 08:04:53;;;;;;;0.00;0.00;;;23.70;99.30;;;;;;5042339;28;20412;-69
2022/08/13 08:07:20;;;;;;;0.00;0.00;;;23.70;99.10;;;;;;5042878;28;20049;-69
2022/08/13 08:09:45;;;;;;;0.00;0.00;;;23.80;98.70;;;;;;5047900;28;20057;-69
2022/08/13 08:14:55;;;;;;;0.00;0.00;;;23.90;98.90;;;;;;5053547;28;20422;-69
2022/08/13 08:17:26;;;;;;;0.00;0.00;;;23.90;98.60;;;;;;5038799;28;20079;-69
2022/08/13 08:19:51;;;;;;;0.35;0.35;;;24.00;98.50;;;;;;5048298;28;20041;-69
2022/08/13 08:22:17;;;;;;;0.20;0.20;;;24.10;98.40;;;;;;5027871;28;20046;-69
2022/08/13 08:24:48;;;;;;;0.10;0.10;;;24.10;98.80;;;;;;5027197;28;20042;-69
2022/08/13 08:27:16;;;;;;;0.00;0.00;;;24.20;98.40;;;;;;5027790;28;20038;-69
2022/08/13 08:29:42;;;;;;;0.00;0.00;;;24.30;98.60;;;;;;5043354;28;20132;-69
2022/08/13 08:32:10;;;;;;;0.00;0.00;;;24.30;98.60;;;;;;5047854;28;20128;-69
2022/08/13 08:34:40;;;;;;;0.00;0.00;;;24.40;98.10;;;;;;5034102;28;20558;-69
2022/08/13 08:37:07;;;;;;;0.00;0.00;;;24.50;98.10;;;;;;5027180;28;20127;-69
2022/08/13 08:42:36;;;;;;;0.00;0.00;;;24.70;98.20;;;;;;5029698;28;20535;-69
2022/08/13 08:45:08;;;;;;;0.00;0.00;;;24.70;97.50;;;;;;5029757;28;20042;-69
2022/08/13 08:47:37;;;;;;;0.00;0.00;;;24.90;97.40;;;;;;5038559;28;20167;-70
2022/08/13 08:50:05;;;;;;;0.00;0.00;;;25.00;97.70;;;;;;5026942;28;20287;-69
2022/08/13 08:55:16;;;;;;;0.00;0.00;;;25.10;97.50;;;;;;5026995;28;20049;-69
2022/08/13 08:57:44;;;;;;;0.03;0.03;;;25.30;97.20;;;;;;5027648;28;20492;-69
2022/08/13 09:00:20;;;;;;;0.00;0.00;;;25.30;96.90;;;;;;5026470;28;20132;-70
2022/08/13 09:02:51;;;;;;;0.10;0.05;;;25.50;97.50;;;;;;5047344;28;20053;-69
2022/08/13 09:05:21;;;;;;;0.70;0.28;;;25.60;96.50;;;;;;5042447;28;20475;-70
2022/08/13 09:07:47;;;;;;;0.00;0.00;;;25.60;96.90;;;;;;5045760;28;20044;-70
2022/08/13 09:10:17;;;;;;;0.22;0.22;;;25.70;95.80;;;;;;5048850;28;20037;-70
2022/08/13 09:12:44;;;;;;;0.00;0.00;;;25.80;95.30;;;;;;5046967;28;20140;-69
2022/08/13 09:15:15;;;;;;;0.00;0.00;;;25.90;95.30;;;;;;5030671;28;20048;-69
2022/08/13 09:17:41;;;;;;;0.00;0.00;;;25.90;95.10;;;;;;5031122;28;20090;-69
2022/08/13 09:20:13;;;;;;;0.00;0.00;;;26.20;96.20;;;;;;5029575;28;20033;-70
2022/08/13 09:22:44;;;;;;;0.20;0.08;;;26.40;95.70;;;;;;5030543;28;20048;-70
2022/08/13 09:25:13;;;;;;;0.00;0.00;;;26.70;94.90;;;;;;5030607;28;20099;-70
2022/08/13 09:27:42;;;;;;;0.00;0.00;;;27.00;94.70;;;;;;5033125;28;20056;-69
2022/08/13 09:30:09;;;;;;;0.00;0.00;;;27.30;94.00;;;;;;5031010;28;20095;-69
2022/08/13 09:32:35;;;;;;;0.00;0.00;;;27.50;94.10;;;;;;5029836;28;20045;-70
2022/08/13 09:35:04;;;;;;;0.10;0.10;;;27.70;94.40;;;;;;5030878;28;20109;-70
2022/08/13 09:37:31;;;;;;;0.00;0.00;;;28.10;94.40;;;;;;5032306;28;20077;-69
2022/08/13 09:40:11;;;;;;;0.00;0.00;;;28.40;93.30;;;;;;5043201;28;20128;-70
2022/08/13 09:42:47;;;;;;;0.10;0.10;;;28.60;92.80;;;;;;5042085;28;20404;-70
2022/08/13 09:45:14;;;;;;;0.00;0.00;;;28.90;92.80;;;;;;5042968;28;20075;-69
2022/08/13 09:47:41;;;;;;;0.00;0.00;;;29.10;92.40;;;;;;5029919;28;20087;-70
2022/08/13 09:50:08;;;;;;;0.00;0.00;;;29.30;92.00;;;;;;5030849;28;20396;-69
2022/08/13 09:52:34;;;;;;;0.00;0.00;;;29.50;91.90;;;;;;5036649;28;20123;-70
2022/08/13 09:54:59;;;;;;;0.00;0.00;;;29.70;91.80;;;;;;5030524;28;20295;-68
2022/08/13 09:57:25;;;;;;;0.00;0.00;;;30.00;91.60;;;;;;5040277;28;20044;-69
2022/08/13 09:59:52;;;;;;;0.00;0.00;;;30.20;92.00;;;;;;5048122;28;20041;-68
2022/08/13 10:02:17;;;;;;;0.32;0.10;;;30.40;91.50;;;;;;5043729;28;20299;-69
2022/08/13 10:04:43;;;;;;;0.08;0.08;;;30.50;91.30;;;;;;5034318;28;20132;-69
2022/08/13 10:07:11;;;;;;;0.00;0.00;;;30.70;90.60;;;;;;5030482;28;20042;-69
2022/08/13 10:09:38;;;;;;;0.00;0.00;;;30.70;90.40;;;;;;5047553;28;20053;-69
2022/08/13 10:12:07;;;;;;;6.13;0.15;;;30.90;90.50;;;;;;5040357;28;20038;-69
2022/08/13 10:14:34;;;;;;;0.00;0.00;;;31.20;89.80;;;;;;5040108;28;20045;-69
2022/08/13 10:17:00;;;;;;;0.30;0.10;;;31.40;88.10;;;;;;5046837;28;20115;-69
2022/08/13 10:19:25;;;;;;;0.10;0.10;;;31.60;88.50;;;;;;5034667;28;20096;-69
2022/08/13 10:21:51;;;;;;;0.00;0.00;;;31.70;88.20;;;;;;5029503;28;20120;-69
2022/08/13 10:24:17;;;;;;;0.00;0.00;;;31.60;88.30;;;;;;5039773;28;20090;-69
2022/08/13 10:26:43;;;;;;;0.00;0.00;;;31.70;86.40;;;;;;5059573;28;20057;-68
2022/08/13 10:29:09;;;;;;;2.72;1.25;;;31.90;86.20;;;;;;5047439;28;20063;-68
2022/08/13 10:31:35;;;;;;;0.73;0.52;;;31.90;85.70;;;;;;5045492;28;20103;-68
2022/08/13 10:34:01;;;;;;;0.10;0.00;;;32.20;86.80;;;;;;5033976;28;20037;-69
2022/08/13 10:36:27;;;;;;;0.00;0.00;;;32.30;86.10;;;;;;5045286;28;20048;-69
2022/08/13 10:38:54;;;;;;;0.10;0.10;;;32.50;87.10;;;;;;5049044;28;20059;-68
2022/08/13 10:41:20;;;;;;;0.00;0.00;;;32.60;87.40;;;;;;5046092;28;20049;-69
2022/08/13 10:43:45;;;;;;;0.00;0.00;;;32.50;84.40;;;;;;5038069;28;20409;-68
2022/08/13 10:46:16;;;;;;;0.00;0.00;;;32.70;84.00;;;;;;5039812;28;20048;-69
2022/08/13 10:48:43;;;;;;;0.10;0.03;;;32.50;83.00;;;;;;5033213;28;20050;-69
2022/08/13 10:51:09;;;;;;;0.20;0.20;;;32.60;85.40;;;;;;5043479;28;20057;-69
2022/08/13 10:56:19;;;;;;;0.03;0.00;;;32.50;83.30;;;;;;5032553;28;20083;-69
2022/08/13 10:58:45;;;;;;;0.10;0.03;;;32.60;85.30;;;;;;5045051;28;20072;-69
2022/08/13 11:01:11;;;;;;;0.00;0.00;;;32.70;84.80;;;;;;5045206;28;20682;-69
2022/08/13 11:03:37;;;;;;;0.00;0.00;;;32.60;84.10;;;;;;5042667;28;20485;-69
2022/08/13 11:06:06;;;;;;;0.00;0.00;;;32.80;83.40;;;;;;5029523;28;20095;-69
2022/08/13 11:08:37;;;;;;;0.03;0.03;;;32.70;83.50;;;;;;5039900;28;20048;-69
2022/08/13 11:11:04;;;;;;;0.00;0.00;;;32.70;82.20;;;;;;5036150;28;20516;-69
2022/08/13 11:13:32;;;;;;;0.00;0.00;;;32.60;82.70;;;;;;5043809;28;20104;-69
2022/08/13 11:16:00;;;;;;;0.70;0.10;;;32.70;81.00;;;;;;5047244;28;20056;-69
2022/08/13 11:18:27;;;;;;;0.00;0.00;;;32.70;81.80;;;;;;5047644;28;20527;-69
2022/08/13 11:21:02;;;;;;;0.00;0.00;;;32.70;81.90;;;;;;5033092;28;20061;-69
2022/08/13 11:23:31;;;;;;;0.00;0.00;;;32.90;80.70;;;;;;5037711;28;20374;-69
2022/08/13 11:25:56;;;;;;;0.00;0.00;;;32.90;82.50;;;;;;5032938;28;20042;-69
2022/08/13 11:28:23;;;;;;;0.00;0.00;;;32.90;81.80;;;;;;5027959;28;20063;-69
2022/08/13 11:30:49;;;;;;;0.00;0.00;;;32.90;82.20;;;;;;5041503;28;20071;-69
2022/08/13 11:33:15;;;;;;;0.10;0.10;;;32.90;81.50;;;;;;5045960;28;20056;-70
2022/08/13 11:35:42;;;;;;;0.00;0.00;;;33.10;82.40;;;;;;5031797;28;20069;-70
2022/08/13 11:38:09;;;;;;;0.00;0.00;;;33.30;82.20;;;;;;5046118;28;20083;-69
2022/08/13 11:40:36;;;;;;;0.00;0.00;;;33.50;81.10;;;;;;5031149;28;20053;-71
2022/08/13 11:43:02;;;;;;;0.00;0.00;;;33.50;80.70;;;;;;5042622;28;20052;-70
2022/08/13 11:45:27;;;;;;;0.10;0.08;;;33.40;80.90;;;;;;5031972;28;20500;-69
2022/08/13 11:47:53;;;;;;;0.00;0.00;;;33.50;79.60;;;;;;5027063;28;20128;-70
2022/08/13 11:50:19;;;;;;;0.00;0.00;;;33.60;80.70;;;;;;5042239;28;20037;-69
2022/08/13 11:52:44;;;;;;;0.00;0.00;;;33.60;80.00;;;;;;5027557;28;20053;-70
2022/08/13 11:55:10;;;;;;;0.00;0.00;;;33.60;80.70;;;;;;5031262;28;20033;-69
2022/08/13 11:57:35;;;;;;;0.00;0.00;;;33.90;79.80;;;;;;5034863;28;20123;-69
2022/08/13 12:00:03;;;;;;;0.10;0.10;;;33.80;81.30;;;;;;5031466;28;20660;-69
2022/08/13 12:02:29;;;;;;;0.00;0.00;;;33.90;80.40;;;;;;5029090;28;20057;-69
2022/08/13 12:04:54;;;;;;;0.00;0.00;;;33.80;80.10;;;;;;5028194;28;20107;-69
2022/08/13 12:07:20;;;;;;;0.00;0.00;;;33.90;79.90;;;;;;5028711;28;20541;-69
2022/08/13 12:09:46;;;;;;;0.10;0.10;;;33.80;80.10;;;;;;5032561;28;20432;-69
2022/08/13 12:12:11;;;;;;;0.00;0.00;;;33.90;78.60;;;;;;5041900;28;20064;-69
2022/08/13 12:14:38;;;;;;;0.00;0.00;;;33.90;77.50;;;;;;5040864;28;20095;-69
2022/08/13 12:17:04;;;;;;;0.00;0.00;;;33.90;77.30;;;;;;5038434;28;20493;-69
2022/08/13 12:19:29;;;;;;;0.10;0.10;;;34.00;78.70;;;;;;5040183;28;20182;-70
2022/08/13 12:21:55;;;;;;;1.52;0.45;;;34.10;78.40;;;;;;5045205;28;20043;-69
2022/08/13 12:24:20;;;;;;;0.20;0.20;;;33.80;77.70;;;;;;5043477;28;20131;-69
2022/08/13 12:26:46;;;;;;;0.00;0.00;;;33.90;77.30;;;;;;5045002;28;20049;-69
2022/08/13 12:29:12;;;;;;;0.00;0.00;;;33.90;77.30;;;;;;5041968;28;20057;-69
2022/08/13 12:31:37;;;;;;;0.03;0.00;;;34.10;77.50;;;;;;5044322;28;20051;-69
2022/08/13 12:34:03;;;;;;;0.05;0.00;;;34.30;77.40;;;;;;5027027;28;20065;-69
2022/08/13 12:36:28;;;;;;;0.00;0.00;;;34.10;75.80;;;;;;5026734;28;20038;-69
2022/08/13 12:38:54;;;;;;;0.00;0.00;;;34.00;76.50;;;;;;5039645;28;20091;-69
2022/08/13 12:41:19;;;;;;;0.10;0.00;;;34.00;75.80;;;;;;5059556;28;20052;-70
2022/08/13 12:43:46;;;;;;;0.03;0.03;;;34.20;76.50;;;;;;5032617;28;20410;-69
2022/08/13 12:46:12;;;;;;;0.00;0.00;;;34.20;75.30;;;;;;5046081;28;20408;-70
2022/08/13 12:48:37;;;;;;;0.00;0.00;;;34.20;75.30;;;;;;5047656;28;20037;-70
2022/08/13 12:51:03;;;;;;;0.75;0.45;;;34.30;75.70;;;;;;5040471;28;20044;-70
2022/08/13 12:53:28;;;;;;;0.00;0.00;;;34.40;76.90;;;;;;5047776;28;20551;-69
2022/08/13 12:55:54;;;;;;;0.32;0.20;;;34.20;75.90;;;;;;5038846;28;20048;-70
2022/08/13 12:58:24;;;;;;;0.00;0.00;;;34.10;75.10;;;;;;5030388;28;20045;-70
2022/08/13 13:00:56;;;;;;;0.05;0.03;;;34.30;75.80;;;;;;5054129;28;20045;-69
2022/08/13 13:03:23;;;;;;;0.00;0.00;;;34.40;75.30;;;;;;5037851;28;20053;-70
2022/08/13 13:05:50;;;;;;;0.20;0.20;;;34.20;74.90;;;;;;5043323;28;20037;-69
2022/08/13 13:08:27;;;;;;;0.00;0.00;;;34.20;74.80;;;;;;5037757;28;20079;-70
2022/08/13 13:10:54;;;;;;;0.00;0.00;;;34.20;74.30;;;;;;5037158;28;20053;-70
2022/08/13 13:13:22;;;;;;;0.00;0.00;;;34.00;75.30;;;;;;5040747;28;20065;-71